createdAt,value
2018-05-23T00:00:46.260Z,1007.16
2018-05-23T00:02:39.069Z,1007.18
2018-05-23T00:03:39.036Z,1007.19
2018-05-23T00:05:31.969Z,1007.20
2018-05-23T00:06:31.826Z,1007.20
2018-05-23T00:08:24.885Z,1007.20
2018-05-23T00:09:24.815Z,1007.20
2018-05-23T00:11:17.812Z,1007.17
2018-05-23T00:12:17.765Z,1007.22
2018-05-23T00:14:10.863Z,1007.21
2018-05-23T00:15:10.675Z,1007.21
2018-05-23T00:17:03.645Z,1007.21
2018-05-23T00:18:03.615Z,1007.22
2018-05-23T00:19:56.601Z,1007.19
2018-05-23T00:20:56.570Z,1007.24
2018-05-23T00:22:49.464Z,1007.21
2018-05-23T00:23:49.330Z,1007.23
2018-05-23T00:25:42.339Z,1007.24
2018-05-23T00:26:42.099Z,1007.25
2018-05-23T00:28:35.125Z,1007.28
2018-05-23T00:29:35.082Z,1007.28
2018-05-23T00:31:28.097Z,1007.28
2018-05-23T00:32:28.032Z,1007.28
2018-05-23T00:34:20.973Z,1007.31
2018-05-23T00:35:20.954Z,1007.30
2018-05-23T00:37:13.941Z,1007.27
2018-05-23T00:38:13.887Z,1007.33
2018-05-23T00:40:06.856Z,1007.32
2018-05-23T00:41:06.889Z,1007.34
2018-05-23T00:43:00.003Z,1007.28
2018-05-23T00:43:59.899Z,1007.30
2018-05-23T00:45:52.881Z,1007.34
2018-05-23T00:46:52.836Z,1007.34
2018-05-23T00:48:45.785Z,1007.36
2018-05-23T00:49:45.755Z,1007.39
2018-05-23T00:51:38.925Z,1007.35
2018-05-23T00:52:38.706Z,1007.37
2018-05-23T00:54:31.678Z,1007.34
2018-05-23T00:55:31.626Z,1007.39
2018-05-23T00:57:24.606Z,1007.40
2018-05-23T00:58:24.585Z,1007.40
2018-05-23T01:00:17.760Z,1007.41
2018-05-23T01:01:17.726Z,1007.38
2018-05-23T01:03:10.715Z,1007.33
2018-05-23T01:04:10.663Z,1007.33
2018-05-23T01:06:03.676Z,1007.32
2018-05-23T01:07:03.621Z,1007.31
2018-05-23T01:08:56.484Z,1007.31
2018-05-23T01:09:56.436Z,1007.31
2018-05-23T01:11:49.426Z,1007.30
2018-05-23T01:12:49.373Z,1007.27
2018-05-23T01:14:42.362Z,1007.30
2018-05-23T01:15:42.341Z,1007.32
2018-05-23T01:17:35.163Z,1007.32
2018-05-23T01:18:35.105Z,1007.32
2018-05-23T01:20:28.060Z,1007.31
2018-05-23T01:21:27.912Z,1007.29
2018-05-23T01:23:20.892Z,1007.29
2018-05-23T01:24:20.851Z,1007.26
2018-05-23T01:26:13.821Z,1007.27
2018-05-23T01:27:13.816Z,1007.27
2018-05-23T01:29:06.702Z,1007.23
2018-05-23T01:30:06.653Z,1007.25
2018-05-23T01:31:59.647Z,1007.22
2018-05-23T01:32:59.577Z,1007.27
2018-05-23T01:34:52.580Z,1007.22
2018-05-23T01:35:52.527Z,1007.22
2018-05-23T01:37:45.801Z,1007.26
2018-05-23T01:38:45.711Z,1007.24
2018-05-23T01:40:38.663Z,1007.22
2018-05-23T01:41:38.668Z,1007.22
2018-05-23T01:43:31.670Z,1007.22
2018-05-23T01:44:31.628Z,1007.21
2018-05-23T01:46:24.454Z,1007.22
2018-05-23T01:47:24.432Z,1007.22
2018-05-23T01:49:17.431Z,1007.26
2018-05-23T01:50:17.356Z,1007.26
2018-05-23T01:52:10.327Z,1007.28
2018-05-23T01:53:10.336Z,1007.29
2018-05-23T01:55:03.552Z,1007.29
2018-05-23T01:56:03.461Z,1007.33
2018-05-23T01:57:56.418Z,1007.31
2018-05-23T01:58:56.391Z,1007.36
2018-05-23T02:00:49.798Z,1007.30
2018-05-23T02:01:49.684Z,1007.33
2018-05-23T02:03:42.677Z,1007.34
2018-05-23T02:04:42.618Z,1007.36
2018-05-23T02:06:35.619Z,1007.33
2018-05-23T02:07:35.583Z,1007.34
2018-05-23T02:09:28.401Z,1007.33
2018-05-23T02:10:28.347Z,1007.34
2018-05-23T02:12:21.428Z,1007.29
2018-05-23T02:13:21.397Z,1007.31
2018-05-23T02:15:14.382Z,1007.33
2018-05-23T02:16:14.339Z,1007.33
2018-05-23T02:18:07.148Z,1007.37
2018-05-23T02:19:07.118Z,1007.36
2018-05-23T02:21:00.139Z,1007.39
2018-05-23T02:22:00.092Z,1007.40
2018-05-23T02:23:53.053Z,1007.38
2018-05-23T02:24:53.140Z,1007.31
2018-05-23T02:26:46.351Z,1007.29
2018-05-23T02:27:46.128Z,1007.32
2018-05-23T02:29:39.121Z,1007.29
2018-05-23T02:30:39.082Z,1007.27
2018-05-23T02:32:32.058Z,1007.31
2018-05-23T02:33:32.009Z,1007.26
2018-05-23T02:35:24.893Z,1007.25
2018-05-23T02:36:24.833Z,1007.24
2018-05-23T02:38:17.782Z,1007.23
2018-05-23T02:39:17.636Z,1007.21
2018-05-23T02:41:10.652Z,1007.21
2018-05-23T02:42:10.556Z,1007.24
2018-05-23T02:44:03.538Z,1007.19
2018-05-23T02:45:03.518Z,1007.20
2018-05-23T02:46:56.403Z,1007.23
2018-05-23T02:47:56.296Z,1007.22
2018-05-23T02:49:49.090Z,1007.23
2018-05-23T02:50:49.068Z,1007.26
2018-05-23T02:52:42.075Z,1007.29
2018-05-23T02:53:42.020Z,1007.30
2018-05-23T02:55:34.993Z,1007.33
2018-05-23T02:56:35.023Z,1007.33
2018-05-23T02:58:28.181Z,1007.33
2018-05-23T02:59:28.119Z,1007.34
2018-05-23T03:01:21.163Z,1007.33
2018-05-23T03:02:21.224Z,1007.36
2018-05-23T03:04:13.925Z,1007.36
2018-05-23T03:05:13.892Z,1007.40
2018-05-23T03:07:06.980Z,1007.40
2018-05-23T03:08:06.769Z,1007.41
2018-05-23T03:09:59.735Z,1007.41
2018-05-23T03:10:59.692Z,1007.43
2018-05-23T03:12:52.672Z,1007.47
2018-05-23T03:13:52.630Z,1007.49
2018-05-23T03:15:45.435Z,1007.48
2018-05-23T03:16:45.403Z,1007.50
2018-05-23T03:18:38.352Z,1007.52
2018-05-23T03:19:38.237Z,1007.56
2018-05-23T03:21:31.195Z,1007.52
2018-05-23T03:22:31.168Z,1007.51
2018-05-23T03:24:24.156Z,1007.47
2018-05-23T03:25:24.108Z,1007.47
2018-05-23T03:27:17.374Z,1007.47
2018-05-23T03:28:17.244Z,1007.52
2018-05-23T03:30:10.244Z,1007.60
2018-05-23T03:31:10.212Z,1007.63
2018-05-23T03:33:03.185Z,1007.61
2018-05-23T03:34:03.121Z,1007.69
2018-05-23T03:35:56.134Z,1007.69
2018-05-23T03:36:55.975Z,1007.74
2018-05-23T03:38:48.974Z,1007.74
2018-05-23T03:39:48.918Z,1007.75
2018-05-23T03:41:41.876Z,1007.72
2018-05-23T03:42:41.859Z,1007.66
2018-05-23T03:44:35.079Z,1007.71
2018-05-23T03:45:34.993Z,1007.71
2018-05-23T03:47:27.829Z,1007.71
2018-05-23T03:48:27.785Z,1007.67
2018-05-23T03:50:20.780Z,1007.68
2018-05-23T03:51:20.748Z,1007.67
2018-05-23T03:53:13.912Z,1007.68
2018-05-23T03:54:13.856Z,1007.73
2018-05-23T03:56:06.870Z,1007.73
2018-05-23T03:57:06.824Z,1007.74
2018-05-23T03:59:00.009Z,1007.73
2018-05-23T03:59:59.941Z,1007.72
2018-05-23T04:01:52.964Z,1007.71
2018-05-23T04:02:52.939Z,1007.77
2018-05-23T04:04:45.960Z,1007.79
2018-05-23T04:05:45.879Z,1007.77
2018-05-23T04:07:38.740Z,1007.75
2018-05-23T04:08:38.699Z,1007.78
2018-05-23T04:10:31.690Z,1007.78
2018-05-23T04:11:31.627Z,1007.78
2018-05-23T04:13:24.601Z,1007.78
2018-05-23T04:14:24.635Z,1007.78
2018-05-23T04:16:17.410Z,1007.83
2018-05-23T04:17:17.351Z,1007.80
2018-05-23T04:19:10.257Z,1007.82
2018-05-23T04:20:10.201Z,1007.82
2018-05-23T04:22:03.180Z,1007.85
2018-05-23T04:23:03.157Z,1007.84
2018-05-23T04:24:56.234Z,1007.85
2018-05-23T04:25:56.124Z,1007.86
2018-05-23T04:27:49.376Z,1007.90
2018-05-23T04:28:49.224Z,1007.88
2018-05-23T04:30:42.217Z,1007.91
2018-05-23T04:31:42.167Z,1007.96
2018-05-23T04:33:35.147Z,1007.95
2018-05-23T04:34:35.100Z,1007.96
2018-05-23T04:36:28.185Z,1007.95
2018-05-23T04:37:27.941Z,1007.96
2018-05-23T04:39:20.946Z,1008.03
2018-05-23T04:40:20.902Z,1008.07
2018-05-23T04:42:13.732Z,1008.10
2018-05-23T04:43:13.685Z,1008.11
2018-05-23T04:45:06.827Z,1008.13
2018-05-23T04:46:06.771Z,1008.11
2018-05-23T04:47:59.805Z,1008.15
2018-05-23T04:48:59.751Z,1008.17
2018-05-23T04:50:52.741Z,1008.19
2018-05-23T04:51:52.678Z,1008.22
2018-05-23T04:53:45.838Z,1008.21
2018-05-23T04:54:45.787Z,1008.23
2018-05-23T04:56:38.773Z,1008.28
2018-05-23T04:57:38.722Z,1008.25
2018-05-23T04:59:31.681Z,1008.28
2018-05-23T05:00:31.660Z,1008.30
2018-05-23T05:02:24.492Z,1008.31
2018-05-23T05:03:24.446Z,1008.32
2018-05-23T05:05:17.456Z,1008.39
2018-05-23T05:06:17.387Z,1008.41
2018-05-23T05:08:10.382Z,1008.42
2018-05-23T05:09:10.362Z,1008.42
2018-05-23T05:11:03.667Z,1008.47
2018-05-23T05:12:03.412Z,1008.45
2018-05-23T05:13:56.364Z,1008.48
2018-05-23T05:14:56.333Z,1008.49
2018-05-23T05:16:49.322Z,1008.55
2018-05-23T05:17:49.281Z,1008.53
2018-05-23T05:19:42.453Z,1008.55
2018-05-23T05:20:42.422Z,1008.59
2018-05-23T05:22:35.439Z,1008.64
2018-05-23T05:23:35.383Z,1008.61
2018-05-23T05:25:28.203Z,1008.65
2018-05-23T05:26:28.176Z,1008.69
2018-05-23T05:28:21.377Z,1008.71
2018-05-23T05:29:21.267Z,1008.73
2018-05-23T05:31:14.087Z,1008.76
2018-05-23T05:32:14.044Z,1008.75
2018-05-23T05:34:07.048Z,1008.77
2018-05-23T05:35:07.005Z,1008.80
2018-05-23T05:36:59.864Z,1008.78
2018-05-23T05:37:59.842Z,1008.78
2018-05-23T05:39:52.872Z,1008.78
2018-05-23T05:40:52.768Z,1008.78
2018-05-23T05:42:45.740Z,1008.81
2018-05-23T05:43:45.847Z,1008.79
2018-05-23T05:45:38.522Z,1008.86
2018-05-23T05:46:38.500Z,1008.84
2018-05-23T05:48:31.319Z,1008.89
2018-05-23T05:49:31.269Z,1008.89
2018-05-23T05:51:24.198Z,1008.92
2018-05-23T05:52:24.060Z,1008.93
2018-05-23T05:54:17.052Z,1009.00
2018-05-23T05:55:16.987Z,1008.99
2018-05-23T05:57:09.946Z,1009.02
2018-05-23T05:58:09.933Z,1009.02
2018-05-23T06:00:03.143Z,1009.05
2018-05-23T06:01:03.052Z,1009.06
2018-05-23T06:02:56.055Z,1009.08
2018-05-23T06:03:55.999Z,1009.07
2018-05-23T06:05:48.873Z,1009.13
2018-05-23T06:06:48.817Z,1009.10
2018-05-23T06:08:41.629Z,1009.12
2018-05-23T06:09:41.603Z,1009.16
2018-05-23T06:11:34.444Z,1009.13
2018-05-23T06:12:34.382Z,1009.18
2018-05-23T06:14:27.377Z,1009.20
2018-05-23T06:15:27.320Z,1009.22
2018-05-23T06:17:20.364Z,1009.23
2018-05-23T06:18:20.328Z,1009.25
2018-05-23T06:20:13.219Z,1009.27
2018-05-23T06:21:13.151Z,1009.30
2018-05-23T06:23:06.152Z,1009.33
2018-05-23T06:24:06.104Z,1009.34
2018-05-23T06:25:58.937Z,1009.32
2018-05-23T06:26:58.887Z,1009.33
2018-05-23T06:28:51.889Z,1009.36
2018-05-23T06:29:51.853Z,1009.35
2018-05-23T06:31:44.687Z,1009.39
2018-05-23T06:32:44.643Z,1009.37
2018-05-23T06:34:37.608Z,1009.42
2018-05-23T06:35:37.576Z,1009.41
2018-05-23T06:37:30.427Z,1009.43
2018-05-23T06:38:30.372Z,1009.42
2018-05-23T06:40:23.388Z,1009.46
2018-05-23T06:41:23.354Z,1009.46
2018-05-23T06:43:16.266Z,1009.48
2018-05-23T06:44:16.170Z,1009.53
2018-05-23T06:46:09.102Z,1009.55
2018-05-23T06:47:08.942Z,1009.57
2018-05-23T06:49:01.936Z,1009.55
2018-05-23T06:50:02.002Z,1009.55
2018-05-23T06:51:54.899Z,1009.56
2018-05-23T06:52:54.850Z,1009.55
2018-05-23T06:54:47.666Z,1009.54
2018-05-23T06:55:47.624Z,1009.57
2018-05-23T06:57:40.649Z,1009.56
2018-05-23T06:58:40.586Z,1009.59
2018-05-23T07:00:33.551Z,1009.63
2018-05-23T07:01:33.549Z,1009.64
2018-05-23T07:03:26.780Z,1009.64
2018-05-23T07:04:26.678Z,1009.64
2018-05-23T07:06:19.503Z,1009.69
2018-05-23T07:07:19.460Z,1009.68
2018-05-23T07:09:12.471Z,1009.67
2018-05-23T07:10:12.442Z,1009.72
2018-05-23T07:12:05.616Z,1009.70
2018-05-23T07:13:05.561Z,1009.72
2018-05-23T07:14:58.549Z,1009.72
2018-05-23T07:15:58.494Z,1009.76
2018-05-23T07:17:51.516Z,1009.73
2018-05-23T07:18:51.424Z,1009.78
2018-05-23T07:20:44.275Z,1009.76
2018-05-23T07:21:44.244Z,1009.81
2018-05-23T07:23:37.246Z,1009.80
2018-05-23T07:24:37.207Z,1009.82
2018-05-23T07:26:30.268Z,1009.85
2018-05-23T07:27:30.230Z,1009.86
2018-05-23T07:29:23.084Z,1009.94
2018-05-23T07:30:23.046Z,1009.92
2018-05-23T07:32:16.039Z,1009.92
2018-05-23T07:33:16.007Z,1009.91
2018-05-23T07:35:08.846Z,1009.92
2018-05-23T07:36:08.781Z,1009.95
2018-05-23T07:38:01.756Z,1009.96
2018-05-23T07:39:01.710Z,1009.98
2018-05-23T07:40:54.573Z,1009.94
2018-05-23T07:41:54.531Z,1009.95
2018-05-23T07:43:47.536Z,1009.98
2018-05-23T07:44:47.471Z,1009.99
2018-05-23T07:46:40.446Z,1009.98
2018-05-23T07:47:40.490Z,1009.97
2018-05-23T07:49:33.275Z,1009.98
2018-05-23T07:50:33.202Z,1010.02
2018-05-23T07:52:26.097Z,1010.03
2018-05-23T07:53:26.066Z,1010.07
2018-05-23T07:55:19.128Z,1010.03
2018-05-23T07:56:19.054Z,1010.02
2018-05-23T07:58:11.872Z,1010.02
2018-05-23T07:59:11.836Z,1010.01
2018-05-23T08:01:05.212Z,1010.12
2018-05-23T08:02:04.981Z,1010.05
2018-05-23T08:03:57.969Z,1010.10
2018-05-23T08:04:57.947Z,1010.12
2018-05-23T08:06:51.426Z,1010.12
2018-05-23T08:07:51.241Z,1010.17
2018-05-23T08:09:44.238Z,1010.17
2018-05-23T08:10:44.208Z,1010.15
2018-05-23T08:12:37.202Z,1010.17
2018-05-23T08:13:37.163Z,1010.16
2018-05-23T08:15:30.004Z,1010.16
2018-05-23T08:16:29.937Z,1010.20
2018-05-23T08:18:22.925Z,1010.25
2018-05-23T08:19:22.886Z,1010.25
2018-05-23T08:21:15.885Z,1010.25
2018-05-23T08:22:15.838Z,1010.23
2018-05-23T08:24:09.092Z,1010.29
2018-05-23T08:25:08.946Z,1010.31
2018-05-23T08:27:01.986Z,1010.29
2018-05-23T08:28:01.910Z,1010.29
2018-05-23T08:29:54.879Z,1010.31
2018-05-23T08:30:54.859Z,1010.33
2018-05-23T08:32:48.028Z,1010.31
2018-05-23T08:33:47.946Z,1010.28
2018-05-23T08:35:40.930Z,1010.28
2018-05-23T08:36:40.968Z,1010.34
2018-05-23T08:38:34.254Z,1010.31
2018-05-23T08:39:34.044Z,1010.34
2018-05-23T08:41:27.007Z,1010.28
2018-05-23T08:42:26.982Z,1010.34
2018-05-23T08:44:19.968Z,1010.33
2018-05-23T08:45:19.918Z,1010.38
2018-05-23T08:47:12.967Z,1010.31
2018-05-23T08:48:12.815Z,1010.35
2018-05-23T08:50:05.835Z,1010.39
2018-05-23T08:51:05.757Z,1010.41
2018-05-23T08:52:58.770Z,1010.44
2018-05-23T08:53:58.705Z,1010.45
2018-05-23T08:55:51.541Z,1010.51
2018-05-23T08:56:51.531Z,1010.50
2018-05-23T08:58:44.578Z,1010.47
2018-05-23T08:59:44.527Z,1010.49
2018-05-23T09:01:37.361Z,1010.49
2018-05-23T09:02:37.334Z,1010.47
2018-05-23T09:04:30.322Z,1010.43
2018-05-23T09:05:30.268Z,1010.43
2018-05-23T09:07:23.134Z,1010.44
2018-05-23T09:08:23.107Z,1010.44
2018-05-23T09:10:16.143Z,1010.50
2018-05-23T09:11:16.068Z,1010.48
2018-05-23T09:13:09.060Z,1010.52
2018-05-23T09:14:09.046Z,1010.54
2018-05-23T09:16:02.279Z,1010.55
2018-05-23T09:17:02.186Z,1010.53
2018-05-23T09:18:55.201Z,1010.52
2018-05-23T09:19:55.165Z,1010.53
2018-05-23T09:21:47.987Z,1010.51
2018-05-23T09:22:47.952Z,1010.50
2018-05-23T09:24:41.112Z,1010.45
2018-05-23T09:25:41.070Z,1010.43
2018-05-23T09:27:33.919Z,1010.50
2018-05-23T09:28:33.894Z,1010.47
2018-05-23T09:30:26.897Z,1010.46
2018-05-23T09:31:26.831Z,1010.45
2018-05-23T09:33:19.796Z,1010.49
2018-05-23T09:34:19.762Z,1010.54
2018-05-23T09:36:12.622Z,1010.55
2018-05-23T09:37:12.573Z,1010.53
2018-05-23T09:39:05.576Z,1010.55
2018-05-23T09:40:05.513Z,1010.58
2018-05-23T09:41:58.836Z,1010.61
2018-05-23T09:42:58.656Z,1010.66
2018-05-23T09:44:51.495Z,1010.69
2018-05-23T09:45:51.449Z,1010.68
2018-05-23T09:47:44.436Z,1010.72
2018-05-23T09:48:44.504Z,1010.78
2018-05-23T09:50:37.713Z,1010.74
2018-05-23T09:51:37.628Z,1010.78
2018-05-23T09:53:30.600Z,1010.72
2018-05-23T09:54:30.573Z,1010.72
2018-05-23T09:56:23.533Z,1010.69
2018-05-23T09:57:23.472Z,1010.66
2018-05-23T09:59:16.282Z,1010.65
2018-05-23T10:00:16.263Z,1010.67
2018-05-23T10:02:09.152Z,1010.64
2018-05-23T10:03:09.056Z,1010.63
2018-05-23T10:05:02.052Z,1010.65
2018-05-23T10:06:02.047Z,1010.68
2018-05-23T10:07:55.014Z,1010.72
2018-05-23T10:08:54.999Z,1010.76
2018-05-23T10:10:48.089Z,1010.73
2018-05-23T10:11:48.013Z,1010.76
2018-05-23T10:13:41.025Z,1010.76
2018-05-23T10:14:41.059Z,1010.76
2018-05-23T10:16:34.211Z,1010.78
2018-05-23T10:17:34.119Z,1010.77
2018-05-23T10:19:27.143Z,1010.77
2018-05-23T10:20:27.120Z,1010.79
2018-05-23T10:22:20.082Z,1010.77
2018-05-23T10:23:20.047Z,1010.76
2018-05-23T10:25:13.077Z,1010.81
2018-05-23T10:26:12.869Z,1010.82
2018-05-23T10:28:05.729Z,1010.85
2018-05-23T10:29:05.685Z,1010.85
2018-05-23T10:30:58.669Z,1010.87
2018-05-23T10:31:58.637Z,1010.88
2018-05-23T10:33:51.438Z,1010.90
2018-05-23T10:34:51.429Z,1010.93
2018-05-23T10:36:44.306Z,1010.92
2018-05-23T10:37:44.239Z,1010.93
2018-05-23T10:39:37.146Z,1010.94
2018-05-23T10:40:37.027Z,1010.98
2018-05-23T10:42:30.035Z,1010.98
2018-05-23T10:43:29.964Z,1010.99
2018-05-23T10:45:22.805Z,1011.04
2018-05-23T10:46:22.918Z,1011.07
2018-05-23T10:48:16.085Z,1011.13
2018-05-23T10:49:15.943Z,1011.06
2018-05-23T10:51:08.918Z,1011.19
2018-05-23T10:52:08.999Z,1011.18
2018-05-23T10:54:01.876Z,1011.16
2018-05-23T10:55:01.875Z,1011.20
2018-05-23T10:56:54.660Z,1011.16
2018-05-23T10:57:54.628Z,1011.24
2018-05-23T10:59:47.542Z,1011.23
2018-05-23T11:00:47.434Z,1011.27
2018-05-23T11:02:40.419Z,1011.25
2018-05-23T11:03:40.388Z,1011.27
2018-05-23T11:05:33.239Z,1011.34
2018-05-23T11:06:33.201Z,1011.35
2018-05-23T11:08:26.389Z,1011.31
2018-05-23T11:09:26.325Z,1011.27
2018-05-23T11:11:19.315Z,1011.37
2018-05-23T11:12:19.281Z,1011.41
2018-05-23T11:14:12.287Z,1011.47
2018-05-23T11:15:12.237Z,1011.45
2018-05-23T11:17:05.123Z,1011.45
2018-05-23T11:18:05.009Z,1011.44
2018-05-23T11:19:58.085Z,1011.42
2018-05-23T11:20:58.029Z,1011.39
2018-05-23T11:22:51.061Z,1011.34
2018-05-23T11:23:51.025Z,1011.20
2018-05-23T11:25:44.031Z,1011.19
2018-05-23T11:26:43.890Z,1011.25
2018-05-23T11:28:36.889Z,1011.24
2018-05-23T11:29:36.933Z,1011.27
2018-05-23T11:31:29.864Z,1011.15
2018-05-23T11:32:29.819Z,1011.12
2018-05-23T11:34:22.784Z,1011.14
2018-05-23T11:35:22.749Z,1011.11
2018-05-23T11:37:15.757Z,1011.06
2018-05-23T11:38:15.720Z,1011.05
2018-05-23T11:40:09.216Z,1011.10
2018-05-23T11:41:08.684Z,1011.10
2018-05-23T11:43:01.616Z,1011.13
2018-05-23T11:44:01.597Z,1011.15
2018-05-23T11:45:54.451Z,1011.52
2018-05-23T11:46:54.405Z,1011.51
2018-05-23T11:48:47.214Z,1011.47
2018-05-23T11:49:47.198Z,1011.49
2018-05-23T11:51:40.220Z,1011.41
2018-05-23T11:52:40.195Z,1011.14
2018-05-23T11:54:33.118Z,1011.26
2018-05-23T11:55:33.064Z,1011.42
2018-05-23T11:57:26.061Z,1011.22
2018-05-23T11:58:26.026Z,1011.03
2018-05-23T12:00:19.020Z,1011.03
2018-05-23T12:01:18.994Z,1010.90
2018-05-23T12:03:11.855Z,1011.03
2018-05-23T12:04:11.816Z,1011.07
2018-05-23T12:06:04.779Z,1011.05
2018-05-23T12:07:04.647Z,1011.06
2018-05-23T12:08:57.611Z,1011.13
2018-05-23T12:09:57.585Z,1011.17
2018-05-23T12:11:50.594Z,1011.29
2018-05-23T12:12:50.545Z,1011.32
2018-05-23T12:14:43.426Z,1011.23
2018-05-23T12:15:43.415Z,1011.33
2018-05-23T12:17:36.605Z,1011.20
2018-05-23T12:18:36.563Z,1011.23
2018-05-23T12:20:29.850Z,1011.29
2018-05-23T12:21:29.717Z,1011.59
2018-05-23T12:23:22.783Z,1011.56
2018-05-23T12:24:22.742Z,1011.27
2018-05-23T12:26:15.550Z,1011.00
2018-05-23T12:27:15.545Z,1011.04
2018-05-23T12:29:08.736Z,1011.21
2018-05-23T12:30:08.677Z,1011.38
2018-05-23T12:32:01.688Z,1011.25
2018-05-23T12:33:01.656Z,1011.23
2018-05-23T12:34:54.964Z,1011.23
2018-05-23T12:35:54.797Z,1011.14
2018-05-23T12:37:47.827Z,1011.20
2018-05-23T12:38:47.789Z,1011.28
2018-05-23T12:40:40.757Z,1010.93
2018-05-23T12:41:40.716Z,1011.24
2018-05-23T12:43:33.823Z,1011.10
2018-05-23T12:44:33.863Z,1010.94
2018-05-23T12:46:26.627Z,1011.03
2018-05-23T12:47:26.623Z,1010.99
2018-05-23T12:49:19.646Z,1010.62
2018-05-23T12:50:19.585Z,1010.69
2018-05-23T12:52:12.671Z,1010.73
2018-05-23T12:53:12.633Z,1010.84
2018-05-23T12:55:05.663Z,1010.78
2018-05-23T12:56:05.627Z,1010.77
2018-05-23T12:57:58.755Z,1010.65
2018-05-23T12:58:58.746Z,1010.69
2018-05-23T13:00:51.768Z,1010.74
2018-05-23T13:01:51.710Z,1010.84
2018-05-23T13:03:44.705Z,1010.70
2018-05-23T13:04:44.655Z,1010.70
2018-05-23T13:06:37.544Z,1011.10
2018-05-23T13:07:37.532Z,1010.91
2018-05-23T13:09:30.543Z,1010.92
2018-05-23T13:10:30.499Z,1010.96
2018-05-23T13:12:23.587Z,1011.02
2018-05-23T13:13:23.473Z,1011.14
2018-05-23T13:15:16.563Z,1011.12
2018-05-23T13:16:16.442Z,1010.90
2018-05-23T13:18:09.498Z,1011.05
2018-05-23T13:19:09.481Z,1011.01
2018-05-23T13:21:02.500Z,1010.79
2018-05-23T13:22:02.446Z,1010.76
2018-05-23T13:23:55.477Z,1010.76
2018-05-23T13:24:55.458Z,1010.80
2018-05-23T13:26:48.476Z,1010.59
2018-05-23T13:27:48.456Z,1010.96
2018-05-23T13:29:41.691Z,1011.00
2018-05-23T13:30:41.591Z,1011.00
2018-05-23T13:32:34.690Z,1010.93
2018-05-23T13:33:34.625Z,1010.67
2018-05-23T13:35:27.530Z,1010.98
2018-05-23T13:36:27.452Z,1010.80
2018-05-23T13:38:20.319Z,1010.51
2018-05-23T13:39:20.268Z,1010.43
2018-05-23T13:41:13.179Z,1010.22
2018-05-23T13:42:13.089Z,1010.23
2018-05-23T13:44:06.112Z,1010.48
2018-05-23T13:45:06.138Z,1010.42
2018-05-23T13:46:59.427Z,1010.41
2018-05-23T13:47:59.267Z,1010.40
2018-05-23T13:49:52.241Z,1010.39
2018-05-23T13:50:52.202Z,1010.38
2018-05-23T13:52:45.238Z,1010.37
2018-05-23T13:53:45.204Z,1010.33
2018-05-23T13:55:38.053Z,1010.39
2018-05-23T13:56:38.011Z,1010.36
2018-05-23T13:58:31.037Z,1010.33
2018-05-23T13:59:31.006Z,1010.31
2018-05-23T14:01:23.994Z,1010.31
2018-05-23T14:02:23.954Z,1010.31
2018-05-23T14:04:16.814Z,1010.30
2018-05-23T14:05:16.766Z,1010.30
2018-05-23T14:07:09.698Z,1010.27
2018-05-23T14:08:09.583Z,1010.30
2018-05-23T14:10:02.562Z,1010.33
2018-05-23T14:11:02.539Z,1010.28
2018-05-23T14:12:55.559Z,1010.31
2018-05-23T14:13:55.487Z,1010.29
2018-05-23T14:15:48.318Z,1010.25
2018-05-23T14:16:48.288Z,1010.22
2018-05-23T14:18:41.369Z,1010.20
2018-05-23T14:19:41.295Z,1010.17
2018-05-23T14:21:34.328Z,1010.19
2018-05-23T14:22:34.318Z,1010.17
2018-05-23T14:24:27.148Z,1010.17
2018-05-23T14:25:27.092Z,1010.14
2018-05-23T14:27:20.113Z,1010.16
2018-05-23T14:28:20.083Z,1010.09
2018-05-23T14:30:13.099Z,1010.14
2018-05-23T14:31:13.052Z,1010.12
2018-05-23T14:33:06.300Z,1010.15
2018-05-23T14:34:06.213Z,1010.18
2018-05-23T14:35:59.078Z,1010.22
2018-05-23T14:36:59.036Z,1010.20
2018-05-23T14:38:52.044Z,1010.20
2018-05-23T14:39:52.012Z,1010.19
2018-05-23T14:41:45.164Z,1010.13
2018-05-23T14:42:45.104Z,1010.18
2018-05-23T14:44:37.972Z,1010.24
2018-05-23T14:45:37.909Z,1010.20
2018-05-23T14:47:30.912Z,1010.21
2018-05-23T14:48:30.873Z,1010.19
2018-05-23T14:50:23.733Z,1010.14
2018-05-23T14:51:23.664Z,1010.31
2018-05-23T14:53:16.513Z,1010.18
2018-05-23T14:54:16.471Z,1010.24
2018-05-23T14:56:09.359Z,1010.40
2018-05-23T14:57:09.267Z,1010.39
2018-05-23T14:59:02.258Z,1010.33
2018-05-23T15:00:02.320Z,1010.41
2018-05-23T15:01:55.590Z,1010.42
2018-05-23T15:02:55.474Z,1010.37
2018-05-23T15:04:48.458Z,1010.36
2018-05-23T15:05:48.433Z,1010.40
2018-05-23T15:07:41.239Z,1010.44
2018-05-23T15:08:41.233Z,1010.39
2018-05-23T15:10:34.106Z,1010.34
2018-05-23T15:11:34.020Z,1010.26
2018-05-23T15:13:27.000Z,1010.37
2018-05-23T15:14:27.081Z,1010.37
2018-05-23T15:16:19.839Z,1010.34
2018-05-23T15:17:19.788Z,1010.38
2018-05-23T15:19:12.775Z,1010.41
2018-05-23T15:20:12.784Z,1010.38
2018-05-23T15:22:05.595Z,1010.27
2018-05-23T15:23:05.545Z,1010.19
2018-05-23T15:24:58.558Z,1010.29
2018-05-23T15:25:58.544Z,1010.21
2018-05-23T15:27:51.571Z,1010.35
2018-05-23T15:28:51.550Z,1010.39
2018-05-23T15:30:44.412Z,1010.10
2018-05-23T15:31:44.366Z,1009.99
2018-05-23T15:33:37.345Z,1010.01
2018-05-23T15:34:37.328Z,1010.07
2018-05-23T15:36:30.353Z,1010.02
2018-05-23T15:37:30.309Z,1010.01
2018-05-23T15:39:23.519Z,1010.05
2018-05-23T15:40:23.459Z,1010.07
2018-05-23T15:42:16.494Z,1010.08
2018-05-23T15:43:16.445Z,1010.08
2018-05-23T15:45:09.746Z,1009.99
2018-05-23T15:46:09.623Z,1009.99
2018-05-23T15:48:02.654Z,1009.99
2018-05-23T15:49:02.596Z,1010.02
2018-05-23T15:50:55.579Z,1010.02
2018-05-23T15:51:55.540Z,1010.03
2018-05-23T15:53:48.655Z,1010.00
2018-05-23T15:54:48.625Z,1010.03
2018-05-23T15:56:41.629Z,1010.05
2018-05-23T15:57:41.690Z,1010.04
2018-05-23T15:59:34.884Z,1010.04
2018-05-23T16:00:34.716Z,1010.00
2018-05-23T16:02:27.754Z,1010.03
2018-05-23T16:03:27.679Z,1009.99
2018-05-23T16:05:20.689Z,1010.01
2018-05-23T16:06:20.624Z,1009.97
2018-05-23T16:08:13.740Z,1009.95
2018-05-23T16:09:13.498Z,1009.96
2018-05-23T16:11:06.642Z,1009.94
2018-05-23T16:12:06.644Z,1009.97
2018-05-23T16:13:59.906Z,1009.90
2018-05-23T16:14:59.780Z,1009.97
2018-05-23T16:16:52.746Z,1009.93
2018-05-23T16:17:52.715Z,1009.93
2018-05-23T16:19:45.704Z,1009.91
2018-05-23T16:20:45.702Z,1009.92
2018-05-23T16:22:38.482Z,1009.96
2018-05-23T16:23:38.455Z,1009.91
2018-05-23T16:25:31.448Z,1009.89
2018-05-23T16:26:31.257Z,1009.87
2018-05-23T16:28:24.284Z,1009.84
2018-05-23T16:29:24.238Z,1009.85
2018-05-23T16:31:17.264Z,1009.81
2018-05-23T16:32:17.216Z,1009.84
2018-05-23T16:34:10.314Z,1009.83
2018-05-23T16:35:10.307Z,1009.80
2018-05-23T16:37:03.343Z,1009.86
2018-05-23T16:38:03.320Z,1009.79
2018-05-23T16:39:56.563Z,1009.80
2018-05-23T16:40:56.383Z,1009.83
2018-05-23T16:42:49.367Z,1009.80
2018-05-23T16:43:49.331Z,1009.87
2018-05-23T16:45:42.193Z,1009.79
2018-05-23T16:46:42.224Z,1009.83
2018-05-23T16:48:35.325Z,1009.79
2018-05-23T16:49:35.295Z,1009.75
2018-05-23T16:51:28.191Z,1009.77
2018-05-23T16:52:28.126Z,1009.72
2018-05-23T16:54:21.083Z,1009.72
2018-05-23T16:55:21.071Z,1009.78
2018-05-23T16:57:14.320Z,1009.79
2018-05-23T16:58:14.252Z,1009.81
2018-05-23T17:00:07.252Z,1009.81
2018-05-23T17:01:07.350Z,1009.81
2018-05-23T17:03:00.433Z,1009.87
2018-05-23T17:04:00.371Z,1009.85
2018-05-23T17:05:53.235Z,1009.91
2018-05-23T17:06:53.207Z,1009.92
2018-05-23T17:08:46.154Z,1009.83
2018-05-23T17:09:46.176Z,1009.82
2018-05-23T17:11:38.999Z,1009.93
2018-05-23T17:12:38.946Z,1009.94
2018-05-23T17:14:31.970Z,1009.90
2018-05-23T17:15:31.950Z,1009.91
2018-05-23T17:17:24.965Z,1009.91
2018-05-23T17:18:24.913Z,1009.92
2018-05-23T17:20:18.197Z,1009.91
2018-05-23T17:21:18.126Z,1009.92
2018-05-23T17:23:11.151Z,1009.98
2018-05-23T17:24:11.217Z,1010.00
2018-05-23T17:26:03.908Z,1010.00